Time;durP1;ratioP1;P1;durP2;ratioP2;P2;SDS_P1;SDS_P2;PMS_P1;PMS_P2;Temp;Humidity;BMP_temperature;BMP_pressure;BME280_temperature;BME280_humidity;BME280_pressure;Samples;Min_cycle;Max_cycle;Signal;HPM_P1;HPM_P2
2022/08/28 00:00:56;;;;;;;1.98;0.65;;;;;;;;;;4985722;28;20626;-67
2022/08/28 00:03:23;;;;;;;3.28;0.93;;;;;;;;;;4971219;28;20416;-66
2022/08/28 00:05:50;;;;;;;3.30;0.95;;;;;;;;;;4984999;28;20526;-66
2022/08/28 00:08:17;;;;;;;2.53;1.00;;;;;;;;;;5002168;28;20542;-67
2022/08/28 00:10:44;;;;;;;3.22;0.98;;;;;;;;;;4972335;28;20050;-66
2022/08/28 00:13:17;;;;;;;2.60;1.00;;;;;;;;;;5007666;28;20526;-67
2022/08/28 00:15:43;;;;;;;;;;;;;;;;;;4974647;28;20062;-66
2022/08/28 00:18:10;;;;;;;2.95;1.00;;;;;;;;;;4974209;28;19961;-66
2022/08/28 00:20:37;;;;;;;2.67;1.05;;;;;;;;;;4974575;28;20890;-67
2022/08/28 00:23:04;;;;;;;2.15;0.70;;;;;;;;;;4986814;28;20443;-65
2022/08/28 00:25:31;;;;;;;4.07;0.90;;;;;;;;;;4971227;28;20058;-66
2022/08/28 00:27:59;;;;;;;3.33;0.90;;;;;;;;;;4971309;28;20489;-66
2022/08/28 00:30:31;;;;;;;2.50;0.80;;;;;;;;;;4969939;28;20476;-65
2022/08/28 00:33:00;;;;;;;2.65;1.00;;;;;;;;;;4970046;28;20325;-65
2022/08/28 00:35:27;;;;;;;3.42;1.20;;;;;;;;;;4969344;28;20052;-66
2022/08/28 00:37:55;;;;;;;2.10;0.80;;;;;;;;;;4969301;28;20523;-67
2022/08/28 00:40:23;;;;;;;2.63;0.80;;;;;;;;;;4969049;28;20727;-67
2022/08/28 00:42:50;;;;;;;2.05;0.73;;;;;;;;;;4969789;28;20426;-66
2022/08/28 00:45:17;;;;;;;2.60;0.80;;;;;;;;;;4970699;28;20614;-67
2022/08/28 00:47:45;;;;;;;4.47;0.95;;;;;;;;;;4969277;28;20141;-67
2022/08/28 00:50:16;;;;;;;2.25;0.80;;;;;;;;;;4970202;28;20050;-66
2022/08/28 00:52:45;;;;;;;3.83;1.10;;;;;;;;;;4968055;28;20089;-66
2022/08/28 00:55:13;;;;;;;2.47;0.77;;;;;;;;;;4984091;28;20473;-66
2022/08/28 00:57:43;;;;;;;2.40;0.80;;;;;;;;;;4969250;28;20142;-67
2022/08/28 01:00:12;;;;;;;2.30;0.73;;;;;;;;;;4968802;28;20094;-67
2022/08/28 01:02:39;;;;;;;1.92;0.70;;;;;;;;;;4970208;28;20034;-65
2022/08/28 01:05:08;;;;;;;1.77;0.60;;;;;;;;;;4973969;28;20121;-67
2022/08/28 01:07:36;;;;;;;3.13;1.00;;;;;;;;;;4972828;28;20034;-65
2022/08/28 01:10:03;;;;;;;3.55;0.90;;;;;;;;;;4974420;28;20050;-66
2022/08/28 01:12:31;;;;;;;4.25;0.70;;;;;;;;;;4972123;28;20134;-66
2022/08/28 01:14:59;;;;;;;2.45;0.90;;;;;;;;;;4973484;28;20046;-66
2022/08/28 01:17:27;;;;;;;2.60;0.80;;;;;;;;;;4973170;28;20038;-65
2022/08/28 01:19:56;;;;;;;3.45;0.82;;;;;;;;;;4973520;28;20059;-66
2022/08/28 01:22:37;;;;;;;2.97;0.90;;;;;;;;;;4974785;28;20047;-66
2022/08/28 01:25:06;;;;;;;2.15;0.80;;;;;;;;;;4974369;28;20046;-66
2022/08/28 01:27:33;;;;;;;3.08;1.00;;;;;;;;;;4972724;28;20484;-66
2022/08/28 01:29:59;;;;;;;3.60;1.13;;;;;;;;;;5005179;28;20043;-66
2022/08/28 01:32:28;;;;;;;2.70;1.00;;;;;;;;;;4973070;28;20042;-67
2022/08/28 01:34:55;;;;;;;1.85;0.65;;;;;;;;;;4974193;28;20038;-66
2022/08/28 01:37:22;;;;;;;3.05;1.02;;;;;;;;;;4971595;28;20125;-65
2022/08/28 01:39:48;;;;;;;3.55;1.20;;;;;;;;;;4974588;28;20031;-66
2022/08/28 01:42:16;;;;;;;5.20;1.13;;;;;;;;;;4975163;28;20210;-66
2022/08/28 01:44:42;;;;;;;3.03;1.20;;;;;;;;;;4973891;28;20046;-66
2022/08/28 01:47:09;;;;;;;3.38;1.35;;;;;;;;;;4972013;28;20070;-67
2022/08/28 01:49:35;;;;;;;3.08;1.17;;;;;;;;;;4974336;28;20089;-67
2022/08/28 01:52:02;;;;;;;3.40;1.30;;;;;;;;;;4988677;28;20039;-66
2022/08/28 01:54:29;;;;;;;4.95;1.20;;;;;;;;;;4971448;28;20045;-66
2022/08/28 01:56:55;;;;;;;3.78;1.40;;;;;;;;;;4971609;28;20440;-65
2022/08/28 01:59:22;;;;;;;3.28;1.27;;;;;;;;;;4987001;28;20170;-65
2022/08/28 02:01:49;;;;;;;3.42;1.25;;;;;;;;;;4973962;28;20066;-66
2022/08/28 02:04:15;;;;;;;2.88;1.15;;;;;;;;;;4972767;28;20508;-66
2022/08/28 02:06:42;;;;;;;3.55;1.30;;;;;;;;;;4973318;28;20086;-63
2022/08/28 02:09:10;;;;;;;3.30;1.30;;;;;;;;;;4973137;28;20851;-63
2022/08/28 02:11:38;;;;;;;3.95;1.40;;;;;;;;;;4973540;28;22161;-66
2022/08/28 02:14:04;;;;;;;3.30;1.40;;;;;;;;;;4975076;28;20084;-64
2022/08/28 02:16:31;;;;;;;3.00;1.20;;;;;;;;;;4974741;28;20038;-65
2022/08/28 02:18:58;;;;;;;3.05;1.20;;;;;;;;;;4975686;28;20629;-65
2022/08/28 02:21:24;;;;;;;2.95;1.10;;;;;;;;;;4973490;28;20066;-65
2022/08/28 02:23:51;;;;;;;5.75;1.40;;;;;;;;;;4974449;28;20062;-65
2022/08/28 02:26:18;;;;;;;3.03;1.17;;;;;;;;;;4974842;28;20055;-66
2022/08/28 02:28:45;;;;;;;5.95;1.50;;;;;;;;;;4973399;28;20089;-66
2022/08/28 02:31:11;;;;;;;3.53;1.20;;;;;;;;;;4974751;28;20418;-66
2022/08/28 02:33:39;;;;;;;3.58;0.93;;;;;;;;;;4971794;28;20045;-66
2022/08/28 02:36:07;;;;;;;3.45;1.20;;;;;;;;;;4973327;28;20396;-66
2022/08/28 02:38:34;;;;;;;2.75;1.10;;;;;;;;;;4970755;28;20042;-66
2022/08/28 02:41:00;;;;;;;5.88;1.40;;;;;;;;;;4973301;28;20436;-65
2022/08/28 02:43:27;;;;;;;4.15;1.13;;;;;;;;;;4972113;28;20433;-65
2022/08/28 02:45:54;;;;;;;3.00;1.13;;;;;;;;;;4973580;28;20057;-65
2022/08/28 02:48:20;;;;;;;3.28;1.10;;;;;;;;;;4987291;28;20519;-65
2022/08/28 02:50:47;;;;;;;2.83;1.10;;;;;;;;;;4973920;28;20132;-63
2022/08/28 02:53:14;;;;;;;3.15;1.20;;;;;;;;;;4979237;28;20128;-64
2022/08/28 02:55:40;;;;;;;3.88;0.95;;;;;;;;;;4972143;28;20385;-66
2022/08/28 02:58:08;;;;;;;2.88;1.10;;;;;;;;;;4974960;28;20543;-64
2022/08/28 03:00:35;;;;;;;3.40;0.90;;;;;;;;;;4976890;28;20104;-66
2022/08/28 03:03:02;;;;;;;4.82;1.17;;;;;;;;;;4972348;28;20057;-66
2022/08/28 03:05:29;;;;;;;2.90;1.13;;;;;;;;;;4975928;28;20054;-64
2022/08/28 03:07:55;;;;;;;2.70;1.00;;;;;;;;;;4979157;28;20042;-65
2022/08/28 03:10:22;;;;;;;2.85;1.20;;;;;;;;;;4972464;28;20606;-65
2022/08/28 03:12:50;;;;;;;3.15;1.02;;;;;;;;;;4975026;28;20065;-65
2022/08/28 03:15:17;;;;;;;5.03;0.90;;;;;;;;;;4975014;28;20089;-66
2022/08/28 03:17:43;;;;;;;3.15;0.90;;;;;;;;;;4972271;28;20070;-65
2022/08/28 03:20:11;;;;;;;3.00;0.90;;;;;;;;;;4973423;28;20034;-66
2022/08/28 03:25:23;;;;;;;4.25;0.93;;;;;;;;;;4973188;28;20116;-64
2022/08/28 03:27:50;;;;;;;3.00;0.80;;;;;;;;;;4973832;28;20054;-64
2022/08/28 03:30:17;;;;;;;2.30;0.70;;;;;;;;;;4973390;28;20038;-64
2022/08/28 03:32:44;;;;;;;2.80;0.88;;;;;;;;;;4975299;28;20062;-65
2022/08/28 03:35:11;;;;;;;4.53;1.08;;;;;;;;;;4976840;28;20090;-64
2022/08/28 03:37:37;;;;;;;2.72;0.90;;;;;;;;;;4973191;28;20638;-65
2022/08/28 03:40:05;;;;;;;2.95;1.08;;;;;;;;;;4976250;28;20160;-65
2022/08/28 03:42:32;;;;;;;3.70;1.40;;;;;;;;;;4974540;28;20042;-66
2022/08/28 03:44:58;;;;;;;3.40;1.15;;;;;;;;;;4974879;28;20055;-65
2022/08/28 03:47:27;;;;;;;2.78;0.77;;;;;;;;;;4972703;28;20035;-65
2022/08/28 03:49:55;;;;;;;2.45;0.80;;;;;;;;;;4975615;28;20050;-65
2022/08/28 03:52:22;;;;;;;3.67;0.95;;;;;;;;;;4974463;28;20050;-64
2022/08/28 03:54:49;;;;;;;3.90;0.98;;;;;;;;;;4976075;28;20057;-66
2022/08/28 03:57:22;;;;;;;2.28;0.80;;;;;;;;;;4975709;28;20152;-65
2022/08/28 03:59:48;;;;;;;;;;;;;;;;;;4976277;28;20753;-65
2022/08/28 04:02:17;;;;;;;3.20;0.98;;;;;;;;;;4975505;28;19925;-65
2022/08/28 04:04:48;;;;;;;2.60;0.77;;;;;;;;;;4974919;28;20562;-65
2022/08/28 04:07:14;;;;;;;2.45;0.75;;;;;;;;;;4988773;28;20058;-64
2022/08/28 04:09:41;;;;;;;3.05;0.80;;;;;;;;;;4974915;28;20527;-65
2022/08/28 04:12:08;;;;;;;2.20;0.88;;;;;;;;;;4976127;28;20669;-65
2022/08/28 04:14:35;;;;;;;2.80;1.02;;;;;;;;;;4975240;28;20042;-64
2022/08/28 04:17:02;;;;;;;2.20;0.70;;;;;;;;;;4976237;28;20520;-65
2022/08/28 04:19:29;;;;;;;2.67;0.93;;;;;;;;;;4971597;28;21789;-64
2022/08/28 04:21:55;;;;;;;3.55;0.90;;;;;;;;;;4977162;28;20031;-64
2022/08/28 04:24:22;;;;;;;3.30;0.90;;;;;;;;;;4973565;28;20040;-65
2022/08/28 04:26:49;;;;;;;2.08;0.80;;;;;;;;;;4974342;28;20503;-65
2022/08/28 04:29:16;;;;;;;3.50;0.90;;;;;;;;;;4974214;28;20046;-65
2022/08/28 04:31:43;;;;;;;2.20;0.73;;;;;;;;;;4992506;28;20072;-64
2022/08/28 04:34:09;;;;;;;2.55;0.90;;;;;;;;;;4972996;28;20044;-64
2022/08/28 04:36:36;;;;;;;2.67;0.90;;;;;;;;;;4974463;28;20046;-64
2022/08/28 04:39:04;;;;;;;3.95;1.00;;;;;;;;;;4974777;28;20042;-64
2022/08/28 04:41:31;;;;;;;2.83;1.00;;;;;;;;;;4974087;28;20034;-66
2022/08/28 04:43:58;;;;;;;3.63;1.02;;;;;;;;;;4972882;28;20455;-65
2022/08/28 04:46:25;;;;;;;2.92;0.95;;;;;;;;;;4973866;28;20086;-66
2022/08/28 04:48:51;;;;;;;2.60;1.00;;;;;;;;;;4973895;28;20034;-65
2022/08/28 04:51:19;;;;;;;3.05;1.00;;;;;;;;;;4974700;28;20091;-64
2022/08/28 04:53:45;;;;;;;3.63;1.15;;;;;;;;;;4973596;28;21651;-64
2022/08/28 04:56:13;;;;;;;3.38;1.20;;;;;;;;;;4974364;28;20070;-65
2022/08/28 04:58:40;;;;;;;3.58;1.30;;;;;;;;;;4973474;28;20042;-65
2022/08/28 05:01:09;;;;;;;3.10;1.20;;;;;;;;;;4973554;28;20038;-64
2022/08/28 05:03:36;;;;;;;6.72;1.48;;;;;;;;;;4973904;28;20049;-64
2022/08/28 05:06:03;;;;;;;3.17;1.00;;;;;;;;;;4974583;28;20042;-64
2022/08/28 05:08:30;;;;;;;3.80;1.48;;;;;;;;;;4972314;28;20039;-64
2022/08/28 05:10:57;;;;;;;5.47;1.40;;;;;;;;;;4973862;28;20097;-64
2022/08/28 05:13:24;;;;;;;4.00;1.40;;;;;;;;;;4975156;28;20050;-63
2022/08/28 05:15:52;;;;;;;3.38;1.40;;;;;;;;;;4973120;28;20499;-66
2022/08/28 05:18:19;;;;;;;3.33;1.50;;;;;;;;;;4973364;28;20702;-65
2022/08/28 05:20:46;;;;;;;3.72;1.40;;;;;;;;;;4974122;28;20065;-65
2022/08/28 05:23:14;;;;;;;3.42;1.52;;;;;;;;;;4974463;28;20071;-65
2022/08/28 05:25:42;;;;;;;3.85;1.67;;;;;;;;;;4972704;28;20114;-64
2022/08/28 05:28:10;;;;;;;3.50;1.60;;;;;;;;;;4973805;28;20042;-65
2022/08/28 05:30:37;;;;;;;3.40;1.48;;;;;;;;;;4974408;28;20043;-65
2022/08/28 05:33:04;;;;;;;3.15;1.33;;;;;;;;;;4973636;28;20500;-65
2022/08/28 05:35:37;;;;;;;3.58;1.35;;;;;;;;;;4987068;28;20507;-65
2022/08/28 05:38:03;;;;;;;3.80;1.50;;;;;;;;;;4973939;28;20944;-65
2022/08/28 05:40:30;;;;;;;6.43;1.70;;;;;;;;;;4974163;28;20046;-65
2022/08/28 05:42:57;;;;;;;3.50;1.50;;;;;;;;;;4973689;28;20373;-65
2022/08/28 05:45:24;;;;;;;3.33;1.60;;;;;;;;;;4973267;28;20486;-65
2022/08/28 05:47:51;;;;;;;5.25;1.70;;;;;;;;;;4973704;28;20609;-65
2022/08/28 05:50:18;;;;;;;5.53;1.70;;;;;;;;;;4972669;28;20047;-65
2022/08/28 05:52:46;;;;;;;3.55;1.65;;;;;;;;;;4973363;28;20500;-65
2022/08/28 05:55:13;;;;;;;3.50;1.48;;;;;;;;;;4972941;28;20066;-65
2022/08/28 05:57:40;;;;;;;3.97;1.60;;;;;;;;;;4972330;28;20113;-66
2022/08/28 06:00:11;;;;;;;4.35;1.73;;;;;;;;;;4973318;28;20120;-65
2022/08/28 06:02:38;;;;;;;3.90;1.30;;;;;;;;;;4973722;28;20047;-64
2022/08/28 06:05:06;;;;;;;3.25;1.25;;;;;;;;;;4972709;28;20058;-65
2022/08/28 06:07:33;;;;;;;3.90;1.20;;;;;;;;;;4971223;28;20042;-66
2022/08/28 06:09:59;;;;;;;3.83;1.60;;;;;;;;;;4972459;28;20035;-69
2022/08/28 06:12:26;;;;;;;3.03;1.23;;;;;;;;;;4972346;28;20115;-66
2022/08/28 06:14:53;;;;;;;4.18;1.35;;;;;;;;;;4974947;28;20767;-65
2022/08/28 06:17:21;;;;;;;3.53;1.25;;;;;;;;;;4973631;28;20096;-65
2022/08/28 06:19:48;;;;;;;4.43;1.40;;;;;;;;;;4982234;28;20089;-65
2022/08/28 06:22:14;;;;;;;2.83;1.20;;;;;;;;;;4982385;28;20086;-66
2022/08/28 06:24:41;;;;;;;2.85;1.17;;;;;;;;;;4981484;28;20055;-65
2022/08/28 06:27:08;;;;;;;2.78;1.08;;;;;;;;;;4972798;28;20834;-65
2022/08/28 06:29:35;;;;;;;5.00;1.35;;;;;;;;;;4971789;28;20070;-65
2022/08/28 06:32:03;;;;;;;2.83;1.20;;;;;;;;;;4972682;28;20038;-66
2022/08/28 06:34:30;;;;;;;3.20;1.10;;;;;;;;;;4971225;28;20058;-65
2022/08/28 06:36:56;;;;;;;4.38;1.20;;;;;;;;;;4972534;28;20042;-65
2022/08/28 06:39:23;;;;;;;3.00;1.20;;;;;;;;;;4972038;28;20125;-65
2022/08/28 06:41:49;;;;;;;3.85;1.15;;;;;;;;;;4973041;28;20042;-65
2022/08/28 06:44:18;;;;;;;3.72;1.23;;;;;;;;;;5003846;28;20039;-65
2022/08/28 06:46:46;;;;;;;3.88;1.10;;;;;;;;;;4971186;28;20046;-65
2022/08/28 06:49:13;;;;;;;2.92;1.30;;;;;;;;;;4987768;28;20112;-66
2022/08/28 06:51:40;;;;;;;3.20;1.25;;;;;;;;;;4970835;28;20116;-65
2022/08/28 06:54:07;;;;;;;6.40;1.35;;;;;;;;;;4972553;28;20137;-64
2022/08/28 06:56:34;;;;;;;3.88;1.38;;;;;;;;;;4970818;28;20046;-65
2022/08/28 06:59:01;;;;;;;6.30;1.50;;;;;;;;;;4973153;28;20739;-65
2022/08/28 07:01:29;;;;;;;2.83;1.10;;;;;;;;;;4972562;28;20153;-64
2022/08/28 07:03:58;;;;;;;3.38;1.38;;;;;;;;;;4971708;28;20901;-64
2022/08/28 07:06:25;;;;;;;3.25;1.25;;;;;;;;;;4972814;28;20054;-64
2022/08/28 07:08:52;;;;;;;5.10;1.40;;;;;;;;;;4976686;28;20034;-64
2022/08/28 07:11:21;;;;;;;2.85;1.10;;;;;;;;;;4977888;28;20042;-64
2022/08/28 07:13:48;;;;;;;2.92;1.08;;;;;;;;;;4974764;28;20609;-65
2022/08/28 07:16:16;;;;;;;3.92;1.15;;;;;;;;;;4976603;28;20039;-65
2022/08/28 07:18:44;;;;;;;3.13;1.30;;;;;;;;;;4974937;28;20052;-64
2022/08/28 07:21:12;;;;;;;3.05;1.20;;;;;;;;;;5006670;28;20034;-64
2022/08/28 07:23:39;;;;;;;3.53;1.40;;;;;;;;;;4975974;28;20125;-63
2022/08/28 07:26:07;;;;;;;3.17;1.17;;;;;;;;;;4975247;28;20046;-64
2022/08/28 07:28:34;;;;;;;2.88;1.00;;;;;;;;;;4974030;28;20043;-64
2022/08/28 07:31:10;;;;;;;3.05;1.25;;;;;;;;;;4976020;28;20047;-64
2022/08/28 07:33:38;;;;;;;3.08;1.35;;;;;;;;;;4975188;28;20043;-63
2022/08/28 07:36:09;;;;;;;3.10;1.27;;;;;;;;;;4975926;28;20088;-64
2022/08/28 07:38:36;;;;;;;2.97;1.20;;;;;;;;;;4975389;28;20046;-64
2022/08/28 07:41:03;;;;;;;6.30;1.10;;;;;;;;;;4976641;28;20061;-64
2022/08/28 07:46:15;;;;;;;3.05;1.17;;;;;;;;;;4974837;28;20053;-63
2022/08/28 07:48:41;;;;;;;3.20;1.20;;;;;;;;;;4973272;28;20050;-65
2022/08/28 07:51:09;;;;;;;3.00;1.00;;;;;;;;;;4975154;28;20427;-64
2022/08/28 07:53:36;;;;;;;2.38;1.00;;;;;;;;;;4973608;28;20408;-65
2022/08/28 07:56:02;;;;;;;3.03;1.20;;;;;;;;;;5006587;28;20058;-65
2022/08/28 07:58:31;;;;;;;3.55;1.50;;;;;;;;;;4972504;28;20038;-64
2022/08/28 08:00:58;;;;;;;2.60;1.00;;;;;;;;;;4976268;28;20038;-65
2022/08/28 08:03:25;;;;;;;3.00;1.20;;;;;;;;;;4973364;28;20042;-65
2022/08/28 08:05:56;;;;;;;4.35;1.42;;;;;;;;;;4974335;28;20116;-65
2022/08/28 08:08:23;;;;;;;4.32;1.13;;;;;;;;;;4974509;28;20043;-65
2022/08/28 08:11:02;;;;;;;3.42;1.13;;;;;;;;;;4976417;28;20038;-65
2022/08/28 08:13:29;;;;;;;3.17;1.23;;;;;;;;;;4975608;28;21046;-64
2022/08/28 08:16:06;;;;;;;3.05;1.10;;;;;;;;;;4974079;28;20121;-64
2022/08/28 08:18:34;;;;;;;2.78;1.17;;;;;;;;;;4974958;28;20562;-65
2022/08/28 08:21:03;;;;;;;3.10;1.40;;;;;;;;;;4975073;28;20044;-64
2022/08/28 08:23:30;;;;;;;3.25;1.10;;;;;;;;;;4973710;28;20049;-65
2022/08/28 08:25:58;;;;;;;5.15;1.40;;;;;;;;;;4989188;28;20584;-64
2022/08/28 08:28:25;;;;;;;3.35;1.40;;;;;;;;;;4973930;28;20051;-64
2022/08/28 08:31:02;;;;;;;3.38;1.17;;;;;;;;;;4974869;28;20420;-64
2022/08/28 08:33:28;;;;;;;2.70;1.10;;;;;;;;;;4973897;28;20058;-64
2022/08/28 08:35:55;;;;;;;3.40;1.20;;;;;;;;;;4975389;28;20054;-64
2022/08/28 08:38:21;;;;;;;3.20;1.30;;;;;;;;;;4988553;28;21604;-64
2022/08/28 08:40:48;;;;;;;3.63;1.15;;;;;;;;;;4989714;28;20093;-64
2022/08/28 08:43:16;;;;;;;2.83;1.20;;;;;;;;;;4975499;28;20160;-64
2022/08/28 08:45:44;;;;;;;3.10;1.30;;;;;;;;;;4972226;28;20193;-64
2022/08/28 08:48:19;;;;;;;2.80;0.98;;;;;;;;;;4973003;28;20045;-64
2022/08/28 08:50:47;;;;;;;3.00;1.20;;;;;;;;;;4974714;28;20736;-64
2022/08/28 08:53:27;;;;;;;2.70;1.05;;;;;;;;;;4989570;28;20049;-64
2022/08/28 08:55:55;;;;;;;4.85;1.30;;;;;;;;;;4989183;28;20061;-64
2022/08/28 08:58:22;;;;;;;3.13;1.23;;;;;;;;;;4975693;28;20065;-64
2022/08/28 09:01:00;;;;;;;3.10;1.30;;;;;;;;;;4976036;28;20069;-64
2022/08/28 09:03:35;;;;;;;3.17;1.10;;;;;;;;;;4977795;28;20614;-64
2022/08/28 09:06:03;;;;;;;3.47;1.02;;;;;;;;;;4976178;28;20051;-63
2022/08/28 09:08:37;;;;;;;3.00;1.05;;;;;;;;;;4977180;28;20038;-64
2022/08/28 09:11:11;;;;;;;3.25;1.25;;;;;;;;;;4978062;28;20050;-64
2022/08/28 09:13:44;;;;;;;2.78;1.00;;;;;;;;;;4977231;28;20073;-64
2022/08/28 09:16:16;;;;;;;2.78;1.10;;;;;;;;;;4991650;28;20108;-64
2022/08/28 09:18:43;;;;;;;2.88;1.05;;;;;;;;;;5008255;28;20046;-65
2022/08/28 09:21:10;;;;;;;3.53;1.05;;;;;;;;;;4980178;28;20078;-64
2022/08/28 09:23:37;;;;;;;3.17;1.10;;;;;;;;;;4979616;28;20035;-63
2022/08/28 09:26:12;;;;;;;2.80;1.00;;;;;;;;;;4977716;28;20129;-64
2022/08/28 09:28:39;;;;;;;3.15;0.95;;;;;;;;;;4979484;28;20054;-64
2022/08/28 09:31:10;;;;;;;4.28;1.10;;;;;;;;;;4992479;28;20482;-64
2022/08/28 09:33:43;;;;;;;5.35;1.10;;;;;;;;;;4976174;28;20061;-64
2022/08/28 09:36:36;;;;;;;3.25;1.00;;;;;;;;;;4975923;28;20043;-62
2022/08/28 09:39:21;;;;;;;4.03;1.00;;;;;;;;;;4979358;28;20049;-63
2022/08/28 09:44:33;;;;;;;2.50;0.88;;;;;;;;;;4984411;28;20101;-63
2022/08/28 09:46:59;;;;;;;3.13;0.98;;;;;;;;;;5007390;28;20141;-64
2022/08/28 09:49:28;;;;;;;2.38;0.90;;;;;;;;;;4974551;28;20065;-64
2022/08/28 09:51:55;;;;;;;2.38;0.75;;;;;;;;;;4975144;28;20039;-64
2022/08/28 09:54:42;;;;;;;2.35;0.80;;;;;;;;;;4974320;28;20065;-64
2022/08/28 09:57:08;;;;;;;3.05;0.75;;;;;;;;;;4973324;28;20141;-64
2022/08/28 09:59:35;;;;;;;2.80;1.00;;;;;;;;;;4974167;28;20042;-64
2022/08/28 10:02:01;;;;;;;2.60;0.80;;;;;;;;;;4974933;28;20041;-64
2022/08/28 10:04:37;;;;;;;3.00;0.98;;;;;;;;;;4973074;28;20103;-64
2022/08/28 10:07:06;;;;;;;3.22;0.90;;;;;;;;;;4974208;28;20554;-64
2022/08/28 10:09:39;;;;;;;2.60;0.80;;;;;;;;;;4972357;28;20038;-64
2022/08/28 10:12:05;;;;;;;4.70;0.98;;;;;;;;;;4975435;28;20058;-65
2022/08/28 10:14:37;;;;;;;3.00;0.80;;;;;;;;;;4974847;28;20077;-64
2022/08/28 10:17:03;;;;;;;3.03;0.95;;;;;;;;;;4974848;28;20046;-64
2022/08/28 10:19:41;;;;;;;2.72;0.88;;;;;;;;;;4975110;28;20055;-64
2022/08/28 10:22:23;;;;;;;2.60;0.90;;;;;;;;;;4975953;28;20050;-63
2022/08/28 10:24:49;;;;;;;2.60;0.90;;;;;;;;;;4974043;28;20065;-64
2022/08/28 10:27:34;;;;;;;2.92;0.95;;;;;;;;;;4975566;28;20400;-64
2022/08/28 10:30:03;;;;;;;3.05;0.90;;;;;;;;;;4976220;28;20495;-63
2022/08/28 10:32:48;;;;;;;3.05;1.00;;;;;;;;;;4975413;28;20047;-63
2022/08/28 10:35:18;;;;;;;2.13;0.70;;;;;;;;;;4976335;28;20405;-63
2022/08/28 10:37:48;;;;;;;2.60;0.73;;;;;;;;;;4974788;28;20097;-64
2022/08/28 10:40:17;;;;;;;2.40;0.80;;;;;;;;;;4976096;28;20038;-64
2022/08/28 10:42:47;;;;;;;2.55;0.73;;;;;;;;;;4974631;28;20736;-64
2022/08/28 10:45:15;;;;;;;2.88;0.90;;;;;;;;;;4976157;28;20082;-64
2022/08/28 10:47:50;;;;;;;2.42;0.75;;;;;;;;;;4975065;28;20052;-64
2022/08/28 10:50:43;;;;;;;2.90;0.98;;;;;;;;;;4975688;28;20043;-65
2022/08/28 10:53:13;;;;;;;2.40;0.90;;;;;;;;;;4976024;28;20384;-65
2022/08/28 10:55:48;;;;;;;2.83;0.90;;;;;;;;;;4973736;28;20054;-65
2022/08/28 10:58:15;;;;;;;2.50;0.90;;;;;;;;;;4976052;28;20125;-64
2022/08/28 11:00:42;;;;;;;2.78;0.90;;;;;;;;;;4974769;28;20066;-64
2022/08/28 11:03:13;;;;;;;2.45;0.80;;;;;;;;;;4973471;28;20096;-64
2022/08/28 11:05:50;;;;;;;3.38;0.90;;;;;;;;;;4974584;28;20468;-64
2022/08/28 11:08:27;;;;;;;2.88;0.90;;;;;;;;;;4989265;28;20046;-64
2022/08/28 11:10:55;;;;;;;2.40;0.70;;;;;;;;;;4978206;28;20508;-64
2022/08/28 11:13:43;;;;;;;5.97;1.00;;;;;;;;;;4974758;28;20038;-64
2022/08/28 11:16:30;;;;;;;2.75;0.80;;;;;;;;;;4971731;28;20038;-64
2022/08/28 11:19:16;;;;;;;2.47;0.80;;;;;;;;;;4980191;28;20488;-64
2022/08/28 11:22:12;;;;;;;2.97;0.73;;;;;;;;;;4971274;28;20088;-64
2022/08/28 11:24:38;;;;;;;3.88;0.88;;;;;;;;;;4979910;28;20662;-64
2022/08/28 11:27:23;;;;;;;3.25;1.00;;;;;;;;;;4974731;28;20038;-64
2022/08/28 11:30:09;;;;;;;5.38;1.00;;;;;;;;;;4988165;28;20230;-65
2022/08/28 11:32:51;;;;;;;2.30;0.70;;;;;;;;;;4975626;28;20042;-64
2022/08/28 11:35:21;;;;;;;2.40;0.80;;;;;;;;;;4975215;28;20049;-65
2022/08/28 11:37:49;;;;;;;2.42;0.82;;;;;;;;;;4974696;28;20042;-64
2022/08/28 11:40:18;;;;;;;2.63;0.90;;;;;;;;;;4973860;28;20058;-65
2022/08/28 11:42:48;;;;;;;2.60;1.00;;;;;;;;;;4975830;28;20059;-65
2022/08/28 11:45:20;;;;;;;2.30;0.80;;;;;;;;;;4973762;28;20055;-65
2022/08/28 11:47:51;;;;;;;2.55;0.80;;;;;;;;;;4974289;28;20050;-65
2022/08/28 11:50:20;;;;;;;2.33;0.90;;;;;;;;;;4973566;28;20399;-65
2022/08/28 11:52:49;;;;;;;2.97;1.05;;;;;;;;;;4975343;28;20408;-65
2022/08/28 11:55:20;;;;;;;2.50;0.90;;;;;;;;;;4978303;28;20055;-65
2022/08/28 11:58:05;;;;;;;2.85;1.00;;;;;;;;;;4978023;28;20043;-65
2022/08/28 12:00:50;;;;;;;3.22;1.10;;;;;;;;;;4977237;28;20125;-64
2022/08/28 12:03:33;;;;;;;2.50;0.90;;;;;;;;;;4992338;28;20097;-64
2022/08/28 12:06:00;;;;;;;2.95;1.10;;;;;;;;;;4997754;28;20111;-64
2022/08/28 12:08:50;;;;;;;2.83;0.88;;;;;;;;;;4979125;28;20619;-65
2022/08/28 12:11:34;;;;;;;2.55;0.90;;;;;;;;;;4976690;28;20199;-65
2022/08/28 12:14:01;;;;;;;4.22;1.17;;;;;;;;;;4981354;28;20046;-65
2022/08/28 12:16:28;;;;;;;2.88;0.98;;;;;;;;;;4975839;28;20087;-65
2022/08/28 12:18:54;;;;;;;2.72;0.80;;;;;;;;;;4981086;28;20033;-65
2022/08/28 12:21:22;;;;;;;2.55;0.90;;;;;;;;;;4987161;28;20054;-65
2022/08/28 12:23:57;;;;;;;3.28;1.10;;;;;;;;;;4984875;28;20049;-65
2022/08/28 12:26:26;;;;;;;5.13;1.00;;;;;;;;;;4973748;28;20054;-64
2022/08/28 12:28:57;;;;;;;2.63;1.08;;;;;;;;;;4976214;28;20092;-63
2022/08/28 12:34:26;;;;;;;3.50;0.97;;;;;;;;;;4975914;28;20084;-63
2022/08/28 12:36:59;;;;;;;2.80;0.90;;;;;;;;;;4975955;28;20072;-65
2022/08/28 12:39:27;;;;;;;4.82;1.10;;;;;;;;;;4991971;28;21086;-64
2022/08/28 12:41:53;;;;;;;3.50;1.10;;;;;;;;;;4974348;28;20538;-64
2022/08/28 12:44:24;;;;;;;2.30;0.80;;;;;;;;;;4975043;28;20074;-64
2022/08/28 12:46:51;;;;;;;2.97;1.00;;;;;;;;;;4974718;28;20081;-64
2022/08/28 12:49:29;;;;;;;2.63;1.00;;;;;;;;;;4991079;28;20034;-64
2022/08/28 12:52:17;;;;;;;2.72;1.08;;;;;;;;;;4987304;28;20038;-64
2022/08/28 12:54:45;;;;;;;3.03;0.95;;;;;;;;;;4975084;28;20054;-65
2022/08/28 12:57:13;;;;;;;2.90;0.95;;;;;;;;;;4975596;28;20046;-65
2022/08/28 12:59:41;;;;;;;2.42;0.88;;;;;;;;;;4974711;28;20043;-65
2022/08/28 13:02:08;;;;;;;2.60;0.88;;;;;;;;;;4975521;28;20101;-65
2022/08/28 13:04:36;;;;;;;3.10;1.00;;;;;;;;;;4974605;28;20049;-65
2022/08/28 13:07:07;;;;;;;2.88;1.00;;;;;;;;;;4974979;28;20089;-65
2022/08/28 13:09:34;;;;;;;5.38;1.20;;;;;;;;;;4974129;28;20038;-65
2022/08/28 13:12:01;;;;;;;2.78;0.90;;;;;;;;;;4976708;28;20038;-65
2022/08/28 13:14:39;;;;;;;3.10;1.00;;;;;;;;;;4973385;28;20041;-64
2022/08/28 13:17:06;;;;;;;2.97;1.00;;;;;;;;;;4975749;28;20046;-64
2022/08/28 13:19:33;;;;;;;2.22;0.75;;;;;;;;;;4976438;28;20122;-64
2022/08/28 13:22:01;;;;;;;2.78;1.00;;;;;;;;;;4974249;28;20133;-64
2022/08/28 13:24:37;;;;;;;2.22;0.80;;;;;;;;;;4973191;28;20042;-63
2022/08/28 13:27:16;;;;;;;5.40;1.00;;;;;;;;;;4975681;28;20054;-64
2022/08/28 13:30:01;;;;;;;3.03;1.00;;;;;;;;;;4975176;28;20142;-64
2022/08/28 13:32:29;;;;;;;2.90;0.95;;;;;;;;;;4974601;28;20045;-64
2022/08/28 13:35:08;;;;;;;2.65;0.80;;;;;;;;;;4972461;28;20538;-64
2022/08/28 13:37:42;;;;;;;2.42;0.90;;;;;;;;;;4971758;28;20035;-65
2022/08/28 13:40:09;;;;;;;2.45;0.80;;;;;;;;;;4976011;28;20050;-65
2022/08/28 13:42:36;;;;;;;2.60;0.82;;;;;;;;;;4992812;28;20035;-65
2022/08/28 13:45:03;;;;;;;2.70;0.90;;;;;;;;;;4974956;28;20050;-64
2022/08/28 13:47:30;;;;;;;2.63;0.90;;;;;;;;;;4977364;28;20026;-65
2022/08/28 13:49:57;;;;;;;3.22;0.90;;;;;;;;;;4976674;28;20404;-64
2022/08/28 13:52:24;;;;;;;3.25;0.90;;;;;;;;;;4975161;28;20046;-64
2022/08/28 13:54:51;;;;;;;2.92;1.00;;;;;;;;;;4976536;28;20057;-64
2022/08/28 13:57:17;;;;;;;2.67;0.90;;;;;;;;;;4975167;28;20049;-64
2022/08/28 13:59:44;;;;;;;2.65;0.85;;;;;;;;;;4974920;28;20098;-64
2022/08/28 14:04:57;;;;;;;3.55;0.82;;;;;;;;;;4990203;28;20130;-64
2022/08/28 14:07:24;;;;;;;2.97;0.80;;;;;;;;;;4983081;28;20931;-64
2022/08/28 14:09:50;;;;;;;3.17;0.90;;;;;;;;;;4975523;28;20046;-64
2022/08/28 14:12:17;;;;;;;2.38;0.70;;;;;;;;;;4982662;28;20038;-63
2022/08/28 14:14:44;;;;;;;2.53;0.82;;;;;;;;;;4972762;28;20096;-64
2022/08/28 14:17:11;;;;;;;2.25;0.70;;;;;;;;;;4974429;28;20070;-63
2022/08/28 14:19:38;;;;;;;2.28;0.80;;;;;;;;;;4985442;28;20045;-64
2022/08/28 14:22:04;;;;;;;5.43;1.00;;;;;;;;;;4980520;28;20048;-64
2022/08/28 14:24:31;;;;;;;5.45;1.80;;;;;;;;;;4988494;28;20581;-64
2022/08/28 14:26:58;;;;;;;2.80;0.98;;;;;;;;;;4971471;28;20057;-64
2022/08/28 14:29:25;;;;;;;2.60;0.80;;;;;;;;;;4993014;28;20150;-65
2022/08/28 14:31:52;;;;;;;2.42;0.80;;;;;;;;;;4992000;28;20099;-63
2022/08/28 14:34:21;;;;;;;2.10;0.70;;;;;;;;;;5004365;28;20038;-66
2022/08/28 14:36:49;;;;;;;2.72;0.80;;;;;;;;;;4991452;28;20128;-65
2022/08/28 14:39:16;;;;;;;2.53;0.90;;;;;;;;;;4974692;28;20043;-65
2022/08/28 14:41:45;;;;;;;2.17;0.80;;;;;;;;;;4975055;28;21646;-66
2022/08/28 14:44:13;;;;;;;2.22;0.73;;;;;;;;;;4966571;28;20536;-65
2022/08/28 14:46:42;;;;;;;2.47;0.80;;;;;;;;;;4966981;28;20053;-65
2022/08/28 14:49:10;;;;;;;2.08;0.70;;;;;;;;;;4967780;28;20084;-65
2022/08/28 14:51:37;;;;;;;2.65;0.88;;;;;;;;;;4967033;28;20043;-65
2022/08/28 14:54:04;;;;;;;2.28;0.60;;;;;;;;;;4968099;28;20039;-66
2022/08/28 14:56:31;;;;;;;2.38;0.73;;;;;;;;;;4968112;28;20404;-63
2022/08/28 14:58:59;;;;;;;2.08;0.63;;;;;;;;;;4976397;28;20054;-64
2022/08/28 15:01:30;;;;;;;3.90;0.80;;;;;;;;;;4968778;28;20555;-64
2022/08/28 15:03:57;;;;;;;1.95;0.63;;;;;;;;;;4969901;28;20053;-65
2022/08/28 15:06:24;;;;;;;2.08;0.63;;;;;;;;;;4970438;28;20169;-65
2022/08/28 15:08:51;;;;;;;1.85;0.60;;;;;;;;;;4986980;28;20176;-66